sensor_id;sensor_type;location;lat;lon;timestamp;P1;durP1;ratioP1;P2;durP2;ratioP2
1721;SDS011;858;53.190;8.596;2023-07-20T00:02:06;2.70;;;2.50;;
1721;SDS011;858;53.190;8.596;2023-07-20T00:04:33;3.33;;;3.03;;
1721;SDS011;858;53.190;8.596;2023-07-20T00:06:59;3.47;;;3.23;;
1721;SDS011;858;53.190;8.596;2023-07-20T00:09:26;3.37;;;2.60;;
1721;SDS011;858;53.190;8.596;2023-07-20T00:11:53;3.70;;;3.40;;
1721;SDS011;858;53.190;8.596;2023-07-20T00:14:19;4.77;;;3.40;;
1721;SDS011;858;53.190;8.596;2023-07-20T00:16:51;3.60;;;3.30;;
1721;SDS011;858;53.190;8.596;2023-07-20T00:19:20;5.03;;;3.67;;
1721;SDS011;858;53.190;8.596;2023-07-20T00:21:47;3.67;;;3.40;;
1721;SDS011;858;53.190;8.596;2023-07-20T00:24:14;3.40;;;3.10;;
1721;SDS011;858;53.190;8.596;2023-07-20T00:26:40;3.40;;;3.10;;
1721;SDS011;858;53.190;8.596;2023-07-20T00:29:08;4.53;;;3.33;;
1721;SDS011;858;53.190;8.596;2023-07-20T00:31:35;3.53;;;3.23;;
1721;SDS011;858;53.190;8.596;2023-07-20T00:34:03;2.57;;;2.37;;
1721;SDS011;858;53.190;8.596;2023-07-20T00:36:30;2.63;;;2.40;;
1721;SDS011;858;53.190;8.596;2023-07-20T00:38:56;3.60;;;2.50;;
1721;SDS011;858;53.190;8.596;2023-07-20T00:41:23;2.60;;;2.40;;
1721;SDS011;858;53.190;8.596;2023-07-20T00:43:49;2.60;;;2.40;;
1721;SDS011;858;53.190;8.596;2023-07-20T00:46:16;4.63;;;2.43;;
1721;SDS011;858;53.190;8.596;2023-07-20T00:48:42;3.80;;;2.43;;
1721;SDS011;858;53.190;8.596;2023-07-20T00:51:10;2.63;;;2.33;;
1721;SDS011;858;53.190;8.596;2023-07-20T00:53:37;2.87;;;2.47;;
1721;SDS011;858;53.190;8.596;2023-07-20T00:56:03;2.30;;;2.10;;
1721;SDS011;858;53.190;8.596;2023-07-20T00:58:30;2.63;;;1.97;;
1721;SDS011;858;53.190;8.596;2023-07-20T01:00:56;2.57;;;2.37;;
1721;SDS011;858;53.190;8.596;2023-07-20T01:03:22;2.30;;;2.10;;
1721;SDS011;858;53.190;8.596;2023-07-20T01:05:51;2.20;;;2.10;;
1721;SDS011;858;53.190;8.596;2023-07-20T01:08:24;2.73;;;1.90;;
1721;SDS011;858;53.190;8.596;2023-07-20T01:10:51;3.13;;;2.83;;
1721;SDS011;858;53.190;8.596;2023-07-20T01:13:18;2.97;;;2.77;;
1721;SDS011;858;53.190;8.596;2023-07-20T01:15:48;2.70;;;2.50;;
1721;SDS011;858;53.190;8.596;2023-07-20T01:18:15;2.23;;;2.07;;
1721;SDS011;858;53.190;8.596;2023-07-20T01:20:43;2.87;;;2.37;;
1721;SDS011;858;53.190;8.596;2023-07-20T01:31:31;2.90;;;1.93;;
1721;SDS011;858;53.190;8.596;2023-07-20T01:33:58;2.50;;;2.30;;
1721;SDS011;858;53.190;8.596;2023-07-20T01:36:26;2.30;;;2.10;;
1721;SDS011;858;53.190;8.596;2023-07-20T01:38:54;2.87;;;2.40;;
1721;SDS011;858;53.190;8.596;2023-07-20T01:41:20;2.30;;;2.00;;
1721;SDS011;858;53.190;8.596;2023-07-20T01:43:47;2.40;;;2.20;;
1721;SDS011;858;53.190;8.596;2023-07-20T01:46:13;2.80;;;2.50;;
1721;SDS011;858;53.190;8.596;2023-07-20T01:48:41;5.03;;;2.23;;
1721;SDS011;858;53.190;8.596;2023-07-20T01:51:09;2.57;;;2.37;;
1721;SDS011;858;53.190;8.596;2023-07-20T01:53:37;2.13;;;2.03;;
1721;SDS011;858;53.190;8.596;2023-07-20T01:56:03;1.80;;;1.70;;
1721;SDS011;858;53.190;8.596;2023-07-20T01:58:29;1.50;;;1.40;;
1721;SDS011;858;53.190;8.596;2023-07-20T02:00:56;2.23;;;2.03;;
1721;SDS011;858;53.190;8.596;2023-07-20T02:03:22;2.47;;;2.10;;
1721;SDS011;858;53.190;8.596;2023-07-20T02:05:53;2.23;;;2.10;;
1721;SDS011;858;53.190;8.596;2023-07-20T02:08:19;2.50;;;2.30;;
1721;SDS011;858;53.190;8.596;2023-07-20T02:10:46;1.70;;;1.60;;
1721;SDS011;858;53.190;8.596;2023-07-20T02:13:15;2.17;;;1.97;;
1721;SDS011;858;53.190;8.596;2023-07-20T02:15:41;4.47;;;2.40;;
1721;SDS011;858;53.190;8.596;2023-07-20T02:18:08;3.20;;;2.57;;
1721;SDS011;858;53.190;8.596;2023-07-20T02:20:34;2.27;;;2.07;;
1721;SDS011;858;53.190;8.596;2023-07-20T02:23:02;2.63;;;2.27;;
1721;SDS011;858;53.190;8.596;2023-07-20T02:25:28;2.50;;;2.30;;
1721;SDS011;858;53.190;8.596;2023-07-20T02:27:55;2.13;;;2.00;;
1721;SDS011;858;53.190;8.596;2023-07-20T02:30:22;2.10;;;1.90;;
1721;SDS011;858;53.190;8.596;2023-07-20T02:32:48;2.60;;;2.40;;
1721;SDS011;858;53.190;8.596;2023-07-20T02:35:15;2.90;;;2.60;;
1721;SDS011;858;53.190;8.596;2023-07-20T02:37:42;2.70;;;2.53;;
1721;SDS011;858;53.190;8.596;2023-07-20T02:40:11;3.40;;;2.47;;
1721;SDS011;858;53.190;8.596;2023-07-20T02:42:37;2.10;;;1.93;;
1721;SDS011;858;53.190;8.596;2023-07-20T02:45:05;3.70;;;2.50;;
1721;SDS011;858;53.190;8.596;2023-07-20T02:47:31;2.67;;;2.47;;
1721;SDS011;858;53.190;8.596;2023-07-20T02:49:59;3.50;;;3.20;;
1721;SDS011;858;53.190;8.596;2023-07-20T02:52:25;3.40;;;3.10;;
1721;SDS011;858;53.190;8.596;2023-07-20T02:54:52;2.83;;;2.63;;
1721;SDS011;858;53.190;8.596;2023-07-20T02:57:19;2.93;;;2.73;;
1721;SDS011;858;53.190;8.596;2023-07-20T02:59:46;2.50;;;2.30;;
1721;SDS011;858;53.190;8.596;2023-07-20T03:02:12;3.27;;;2.97;;
1721;SDS011;858;53.190;8.596;2023-07-20T03:04:39;3.63;;;3.30;;
1721;SDS011;858;53.190;8.596;2023-07-20T03:07:06;5.33;;;2.93;;
1721;SDS011;858;53.190;8.596;2023-07-20T03:09:33;3.00;;;2.80;;
1721;SDS011;858;53.190;8.596;2023-07-20T03:11:59;3.57;;;3.27;;
1721;SDS011;858;53.190;8.596;2023-07-20T03:14:27;3.90;;;3.60;;
1721;SDS011;858;53.190;8.596;2023-07-20T03:16:55;5.33;;;4.30;;
1721;SDS011;858;53.190;8.596;2023-07-20T03:19:21;3.73;;;2.97;;
1721;SDS011;858;53.190;8.596;2023-07-20T03:21:47;5.20;;;3.10;;
1721;SDS011;858;53.190;8.596;2023-07-20T03:24:14;3.33;;;2.80;;
1721;SDS011;858;53.190;8.596;2023-07-20T03:26:40;5.07;;;3.40;;
1721;SDS011;858;53.190;8.596;2023-07-20T03:29:07;3.63;;;3.20;;
1721;SDS011;858;53.190;8.596;2023-07-20T03:31:35;4.90;;;3.40;;
1721;SDS011;858;53.190;8.596;2023-07-20T03:34:01;3.63;;;3.33;;
1721;SDS011;858;53.190;8.596;2023-07-20T03:36:28;3.50;;;3.20;;
1721;SDS011;858;53.190;8.596;2023-07-20T03:38:54;3.83;;;3.10;;
1721;SDS011;858;53.190;8.596;2023-07-20T03:41:20;5.40;;;3.40;;
1721;SDS011;858;53.190;8.596;2023-07-20T03:43:47;3.03;;;2.57;;
1721;SDS011;858;53.190;8.596;2023-07-20T03:46:13;4.00;;;3.10;;
1721;SDS011;858;53.190;8.596;2023-07-20T03:48:42;3.53;;;3.23;;
1721;SDS011;858;53.190;8.596;2023-07-20T03:51:09;3.80;;;3.50;;
1721;SDS011;858;53.190;8.596;2023-07-20T03:53:35;3.47;;;3.17;;
1721;SDS011;858;53.190;8.596;2023-07-20T03:56:02;6.17;;;3.70;;
1721;SDS011;858;53.190;8.596;2023-07-20T03:58:28;5.97;;;3.40;;
1721;SDS011;858;53.190;8.596;2023-07-20T04:00:55;3.40;;;2.90;;
1721;SDS011;858;53.190;8.596;2023-07-20T04:03:21;6.67;;;3.70;;
1721;SDS011;858;53.190;8.596;2023-07-20T04:05:51;7.60;;;3.70;;
1721;SDS011;858;53.190;8.596;2023-07-20T04:08:19;4.57;;;3.40;;
1721;SDS011;858;53.190;8.596;2023-07-20T04:10:45;2.97;;;2.77;;
1721;SDS011;858;53.190;8.596;2023-07-20T04:13:11;3.17;;;2.87;;
1721;SDS011;858;53.190;8.596;2023-07-20T04:15:38;6.20;;;2.90;;
1721;SDS011;858;53.190;8.596;2023-07-20T04:18:04;3.70;;;3.33;;
1721;SDS011;858;53.190;8.596;2023-07-20T04:20:31;4.57;;;3.70;;
1721;SDS011;858;53.190;8.596;2023-07-20T04:22:58;4.00;;;3.60;;
1721;SDS011;858;53.190;8.596;2023-07-20T04:25:25;5.20;;;4.00;;
1721;SDS011;858;53.190;8.596;2023-07-20T04:27:51;5.60;;;3.30;;
1721;SDS011;858;53.190;8.596;2023-07-20T04:30:19;3.70;;;3.33;;
1721;SDS011;858;53.190;8.596;2023-07-20T04:32:47;3.83;;;3.53;;
1721;SDS011;858;53.190;8.596;2023-07-20T04:35:16;3.37;;;3.07;;
1721;SDS011;858;53.190;8.596;2023-07-20T04:37:43;3.60;;;3.30;;
1721;SDS011;858;53.190;8.596;2023-07-20T04:40:12;5.00;;;3.63;;
1721;SDS011;858;53.190;8.596;2023-07-20T04:42:41;5.87;;;4.10;;
1721;SDS011;858;53.190;8.596;2023-07-20T04:45:07;6.87;;;4.37;;
1721;SDS011;858;53.190;8.596;2023-07-20T04:47:34;5.60;;;3.70;;
1721;SDS011;858;53.190;8.596;2023-07-20T04:50:00;5.30;;;3.73;;
1721;SDS011;858;53.190;8.596;2023-07-20T04:52:28;5.87;;;4.13;;
1721;SDS011;858;53.190;8.596;2023-07-20T04:54:54;3.87;;;3.53;;
1721;SDS011;858;53.190;8.596;2023-07-20T04:57:23;5.83;;;4.17;;
1721;SDS011;858;53.190;8.596;2023-07-20T04:59:49;4.43;;;4.03;;
1721;SDS011;858;53.190;8.596;2023-07-20T05:02:16;5.17;;;3.90;;
1721;SDS011;858;53.190;8.596;2023-07-20T05:04:42;7.20;;;4.63;;
1721;SDS011;858;53.190;8.596;2023-07-20T05:07:10;5.00;;;4.10;;
1721;SDS011;858;53.190;8.596;2023-07-20T05:09:37;5.73;;;5.20;;
1721;SDS011;858;53.190;8.596;2023-07-20T05:12:05;4.80;;;4.23;;
1721;SDS011;858;53.190;8.596;2023-07-20T05:14:33;4.70;;;4.30;;
1721;SDS011;858;53.190;8.596;2023-07-20T05:17:00;5.90;;;3.93;;
1721;SDS011;858;53.190;8.596;2023-07-20T05:19:26;4.20;;;3.50;;
1721;SDS011;858;53.190;8.596;2023-07-20T05:21:53;5.07;;;4.67;;
1721;SDS011;858;53.190;8.596;2023-07-20T05:24:19;5.87;;;3.83;;
1721;SDS011;858;53.190;8.596;2023-07-20T05:26:45;7.13;;;3.50;;
1721;SDS011;858;53.190;8.596;2023-07-20T05:29:12;4.33;;;3.53;;
1721;SDS011;858;53.190;8.596;2023-07-20T05:31:41;5.67;;;3.03;;
1721;SDS011;858;53.190;8.596;2023-07-20T05:34:08;5.57;;;3.57;;
1721;SDS011;858;53.190;8.596;2023-07-20T05:36:34;7.27;;;3.37;;
1721;SDS011;858;53.190;8.596;2023-07-20T05:39:01;4.70;;;3.37;;
1721;SDS011;858;53.190;8.596;2023-07-20T05:41:28;3.93;;;2.63;;
1721;SDS011;858;53.190;8.596;2023-07-20T05:43:55;3.67;;;3.13;;
1721;SDS011;858;53.190;8.596;2023-07-20T05:46:21;5.10;;;3.20;;
1721;SDS011;858;53.190;8.596;2023-07-20T05:48:50;3.50;;;2.87;;
1721;SDS011;858;53.190;8.596;2023-07-20T05:51:17;3.50;;;3.20;;
1721;SDS011;858;53.190;8.596;2023-07-20T05:53:44;6.23;;;2.97;;
1721;SDS011;858;53.190;8.596;2023-07-20T05:56:10;7.30;;;3.17;;
1721;SDS011;858;53.190;8.596;2023-07-20T05:58:37;3.03;;;2.10;;
1721;SDS011;858;53.190;8.596;2023-07-20T06:01:03;2.40;;;2.20;;
1721;SDS011;858;53.190;8.596;2023-07-20T06:03:30;5.37;;;2.80;;
1721;SDS011;858;53.190;8.596;2023-07-20T06:06:00;4.13;;;1.90;;
1721;SDS011;858;53.190;8.596;2023-07-20T06:08:27;2.53;;;1.43;;
1721;SDS011;858;53.190;8.596;2023-07-20T06:10:55;2.30;;;2.10;;
1721;SDS011;858;53.190;8.596;2023-07-20T06:13:21;2.13;;;1.93;;
1721;SDS011;858;53.190;8.596;2023-07-20T06:15:48;2.70;;;2.00;;
1721;SDS011;858;53.190;8.596;2023-07-20T06:18:14;5.27;;;2.43;;
1721;SDS011;858;53.190;8.596;2023-07-20T06:20:41;5.30;;;2.13;;
1721;SDS011;858;53.190;8.596;2023-07-20T06:23:08;5.20;;;2.20;;
1721;SDS011;858;53.190;8.596;2023-07-20T06:25:35;3.50;;;1.73;;
1721;SDS011;858;53.190;8.596;2023-07-20T06:28:01;2.80;;;2.30;;
1721;SDS011;858;53.190;8.596;2023-07-20T06:30:29;2.20;;;1.90;;
1721;SDS011;858;53.190;8.596;2023-07-20T06:32:55;3.50;;;2.00;;
1721;SDS011;858;53.190;8.596;2023-07-20T06:35:21;2.57;;;2.27;;
1721;SDS011;858;53.190;8.596;2023-07-20T06:37:48;1.30;;;1.20;;
1721;SDS011;858;53.190;8.596;2023-07-20T06:40:16;2.60;;;1.53;;
1721;SDS011;858;53.190;8.596;2023-07-20T06:42:43;3.03;;;1.43;;
1721;SDS011;858;53.190;8.596;2023-07-20T06:45:09;2.87;;;1.80;;
1721;SDS011;858;53.190;8.596;2023-07-20T06:47:37;2.43;;;1.90;;
1721;SDS011;858;53.190;8.596;2023-07-20T06:50:04;2.13;;;1.60;;
1721;SDS011;858;53.190;8.596;2023-07-20T06:52:31;3.70;;;1.40;;
1721;SDS011;858;53.190;8.596;2023-07-20T06:54:57;5.07;;;1.60;;
1721;SDS011;858;53.190;8.596;2023-07-20T06:57:26;3.20;;;1.27;;
1721;SDS011;858;53.190;8.596;2023-07-20T06:59:52;2.33;;;1.13;;
1721;SDS011;858;53.190;8.596;2023-07-20T07:02:20;2.63;;;1.40;;
1721;SDS011;858;53.190;8.596;2023-07-20T07:04:47;1.93;;;1.30;;
1721;SDS011;858;53.190;8.596;2023-07-20T07:07:13;1.60;;;1.50;;
1721;SDS011;858;53.190;8.596;2023-07-20T07:09:40;1.90;;;1.40;;
1721;SDS011;858;53.190;8.596;2023-07-20T07:12:07;2.70;;;1.70;;
1721;SDS011;858;53.190;8.596;2023-07-20T07:14:35;1.80;;;1.60;;
1721;SDS011;858;53.190;8.596;2023-07-20T07:17:02;2.20;;;1.57;;
1721;SDS011;858;53.190;8.596;2023-07-20T07:19:28;2.03;;;1.07;;
1721;SDS011;858;53.190;8.596;2023-07-20T07:21:54;3.43;;;1.40;;
1721;SDS011;858;53.190;8.596;2023-07-20T07:24:21;4.00;;;1.80;;
1721;SDS011;858;53.190;8.596;2023-07-20T07:26:47;5.33;;;2.00;;
1721;SDS011;858;53.190;8.596;2023-07-20T07:29:13;2.80;;;1.87;;
1721;SDS011;858;53.190;8.596;2023-07-20T07:31:41;4.60;;;1.60;;
1721;SDS011;858;53.190;8.596;2023-07-20T07:34:07;7.80;;;2.00;;
1721;SDS011;858;53.190;8.596;2023-07-20T07:36:34;7.70;;;3.00;;
1721;SDS011;858;53.190;8.596;2023-07-20T07:39:01;5.13;;;1.47;;
1721;SDS011;858;53.190;8.596;2023-07-20T07:41:27;5.73;;;2.10;;
1721;SDS011;858;53.190;8.596;2023-07-20T07:43:53;4.73;;;1.63;;
1721;SDS011;858;53.190;8.596;2023-07-20T07:46:20;2.73;;;1.80;;
1721;SDS011;858;53.190;8.596;2023-07-20T07:48:47;5.60;;;1.70;;
1721;SDS011;858;53.190;8.596;2023-07-20T07:51:14;3.73;;;2.10;;
1721;SDS011;858;53.190;8.596;2023-07-20T07:53:40;3.80;;;2.20;;
1721;SDS011;858;53.190;8.596;2023-07-20T07:56:07;7.57;;;1.77;;
1721;SDS011;858;53.190;8.596;2023-07-20T07:58:33;4.80;;;2.43;;
1721;SDS011;858;53.190;8.596;2023-07-20T08:01:00;5.73;;;2.30;;
1721;SDS011;858;53.190;8.596;2023-07-20T08:03:27;4.40;;;2.43;;
1721;SDS011;858;53.190;8.596;2023-07-20T08:05:56;3.70;;;2.27;;
1721;SDS011;858;53.190;8.596;2023-07-20T08:08:23;3.47;;;2.40;;
1721;SDS011;858;53.190;8.596;2023-07-20T08:10:52;3.40;;;2.33;;
1721;SDS011;858;53.190;8.596;2023-07-20T08:13:19;2.97;;;2.30;;
1721;SDS011;858;53.190;8.596;2023-07-20T08:15:48;3.83;;;2.40;;
1721;SDS011;858;53.190;8.596;2023-07-20T08:18:15;2.63;;;1.73;;
1721;SDS011;858;53.190;8.596;2023-07-20T08:20:43;5.10;;;2.70;;
1721;SDS011;858;53.190;8.596;2023-07-20T08:23:11;2.20;;;1.97;;
1721;SDS011;858;53.190;8.596;2023-07-20T08:25:37;3.83;;;1.83;;
1721;SDS011;858;53.190;8.596;2023-07-20T08:28:06;3.27;;;1.93;;
1721;SDS011;858;53.190;8.596;2023-07-20T08:30:39;3.10;;;2.00;;
1721;SDS011;858;53.190;8.596;2023-07-20T08:33:05;5.63;;;2.90;;
1721;SDS011;858;53.190;8.596;2023-07-20T08:35:32;3.73;;;2.00;;
1721;SDS011;858;53.190;8.596;2023-07-20T08:37:58;3.60;;;2.43;;
1721;SDS011;858;53.190;8.596;2023-07-20T08:40:27;4.67;;;2.40;;
1721;SDS011;858;53.190;8.596;2023-07-20T08:42:55;3.60;;;2.03;;
1721;SDS011;858;53.190;8.596;2023-07-20T08:45:22;7.37;;;1.97;;
1721;SDS011;858;53.190;8.596;2023-07-20T08:47:52;3.13;;;1.97;;
1721;SDS011;858;53.190;8.596;2023-07-20T08:50:18;2.50;;;2.00;;
1721;SDS011;858;53.190;8.596;2023-07-20T08:52:50;3.43;;;1.90;;
1721;SDS011;858;53.190;8.596;2023-07-20T08:55:17;2.27;;;2.07;;
1721;SDS011;858;53.190;8.596;2023-07-20T08:57:45;8.23;;;1.97;;
1721;SDS011;858;53.190;8.596;2023-07-20T09:00:12;2.47;;;1.90;;
1721;SDS011;858;53.190;8.596;2023-07-20T09:02:39;3.30;;;2.00;;
1721;SDS011;858;53.190;8.596;2023-07-20T09:05:07;3.17;;;2.20;;
1721;SDS011;858;53.190;8.596;2023-07-20T09:07:34;7.83;;;2.50;;
1721;SDS011;858;53.190;8.596;2023-07-20T09:10:01;4.00;;;2.10;;
1721;SDS011;858;53.190;8.596;2023-07-20T09:12:30;5.00;;;3.23;;
1721;SDS011;858;53.190;8.596;2023-07-20T09:14:58;3.10;;;2.33;;
1721;SDS011;858;53.190;8.596;2023-07-20T09:17:25;4.27;;;2.47;;
1721;SDS011;858;53.190;8.596;2023-07-20T09:19:51;6.57;;;2.00;;
1721;SDS011;858;53.190;8.596;2023-07-20T09:22:18;3.60;;;2.03;;
1721;SDS011;858;53.190;8.596;2023-07-20T09:24:44;3.10;;;2.17;;
1721;SDS011;858;53.190;8.596;2023-07-20T09:27:11;3.50;;;2.00;;
1721;SDS011;858;53.190;8.596;2023-07-20T09:29:47;3.40;;;1.80;;
1721;SDS011;858;53.190;8.596;2023-07-20T09:32:17;3.93;;;2.50;;
1721;SDS011;858;53.190;8.596;2023-07-20T09:34:44;4.47;;;2.10;;
1721;SDS011;858;53.190;8.596;2023-07-20T09:37:10;2.40;;;1.60;;
1721;SDS011;858;53.190;8.596;2023-07-20T09:39:41;3.30;;;2.50;;
1721;SDS011;858;53.190;8.596;2023-07-20T09:42:08;3.53;;;2.30;;
1721;SDS011;858;53.190;8.596;2023-07-20T09:44:34;2.90;;;1.70;;
1721;SDS011;858;53.190;8.596;2023-07-20T09:47:02;7.40;;;2.70;;
1721;SDS011;858;53.190;8.596;2023-07-20T09:49:30;3.80;;;2.13;;
1721;SDS011;858;53.190;8.596;2023-07-20T09:51:57;2.87;;;2.20;;
1721;SDS011;858;53.190;8.596;2023-07-20T09:54:23;5.80;;;1.83;;
1721;SDS011;858;53.190;8.596;2023-07-20T09:56:50;11.50;;;2.90;;
1721;SDS011;858;53.190;8.596;2023-07-20T09:59:17;3.20;;;1.77;;
1721;SDS011;858;53.190;8.596;2023-07-20T10:01:45;3.30;;;2.30;;
1721;SDS011;858;53.190;8.596;2023-07-20T10:04:12;8.33;;;2.47;;
1721;SDS011;858;53.190;8.596;2023-07-20T10:06:43;2.50;;;2.07;;
1721;SDS011;858;53.190;8.596;2023-07-20T10:09:12;3.60;;;2.10;;
1721;SDS011;858;53.190;8.596;2023-07-20T10:11:42;4.93;;;2.20;;
1721;SDS011;858;53.190;8.596;2023-07-20T10:14:09;2.23;;;1.97;;
1721;SDS011;858;53.190;8.596;2023-07-20T10:16:39;3.37;;;2.27;;
1721;SDS011;858;53.190;8.596;2023-07-20T10:19:13;4.17;;;2.77;;
1721;SDS011;858;53.190;8.596;2023-07-20T10:21:46;3.30;;;2.23;;
1721;SDS011;858;53.190;8.596;2023-07-20T10:24:13;4.13;;;1.90;;
1721;SDS011;858;53.190;8.596;2023-07-20T10:26:40;2.63;;;2.23;;
1721;SDS011;858;53.190;8.596;2023-07-20T10:29:07;2.13;;;1.70;;
1721;SDS011;858;53.190;8.596;2023-07-20T10:31:34;4.57;;;2.60;;
1721;SDS011;858;53.190;8.596;2023-07-20T10:34:01;2.53;;;1.83;;
1721;SDS011;858;53.190;8.596;2023-07-20T10:36:27;4.80;;;1.90;;
1721;SDS011;858;53.190;8.596;2023-07-20T10:38:56;3.50;;;1.80;;
1721;SDS011;858;53.190;8.596;2023-07-20T10:41:27;5.27;;;2.40;;
1721;SDS011;858;53.190;8.596;2023-07-20T10:43:57;4.90;;;1.77;;
1721;SDS011;858;53.190;8.596;2023-07-20T10:46:34;5.40;;;2.27;;
1721;SDS011;858;53.190;8.596;2023-07-20T10:49:02;1.73;;;1.57;;
1721;SDS011;858;53.190;8.596;2023-07-20T10:51:38;2.00;;;1.40;;
1721;SDS011;858;53.190;8.596;2023-07-20T10:54:08;3.63;;;1.40;;
1721;SDS011;858;53.190;8.596;2023-07-20T10:56:35;8.13;;;1.70;;
1721;SDS011;858;53.190;8.596;2023-07-20T10:59:02;3.60;;;1.60;;
1721;SDS011;858;53.190;8.596;2023-07-20T11:01:46;1.93;;;1.20;;
1721;SDS011;858;53.190;8.596;2023-07-20T11:04:14;2.30;;;1.30;;
1721;SDS011;858;53.190;8.596;2023-07-20T11:06:42;3.70;;;1.70;;
1721;SDS011;858;53.190;8.596;2023-07-20T11:09:11;7.43;;;2.63;;
1721;SDS011;858;53.190;8.596;2023-07-20T11:11:39;1.70;;;1.13;;
1721;SDS011;858;53.190;8.596;2023-07-20T11:14:06;10.80;;;1.43;;
1721;SDS011;858;53.190;8.596;2023-07-20T11:16:35;2.43;;;1.37;;
1721;SDS011;858;53.190;8.596;2023-07-20T11:19:02;3.20;;;1.03;;
1721;SDS011;858;53.190;8.596;2023-07-20T11:21:29;3.40;;;1.30;;
1721;SDS011;858;53.190;8.596;2023-07-20T11:23:55;1.87;;;1.27;;
1721;SDS011;858;53.190;8.596;2023-07-20T11:26:23;2.20;;;1.20;;
1721;SDS011;858;53.190;8.596;2023-07-20T11:28:50;6.10;;;1.40;;
1721;SDS011;858;53.190;8.596;2023-07-20T11:31:17;4.17;;;1.50;;
1721;SDS011;858;53.190;8.596;2023-07-20T11:33:44;2.50;;;0.93;;
1721;SDS011;858;53.190;8.596;2023-07-20T11:36:12;1.83;;;0.90;;
1721;SDS011;858;53.190;8.596;2023-07-20T11:38:40;2.93;;;1.20;;
1721;SDS011;858;53.190;8.596;2023-07-20T11:41:07;1.67;;;1.00;;
1721;SDS011;858;53.190;8.596;2023-07-20T11:43:35;6.13;;;1.40;;
1721;SDS011;858;53.190;8.596;2023-07-20T11:46:03;6.03;;;1.60;;
1721;SDS011;858;53.190;8.596;2023-07-20T11:48:31;2.20;;;1.23;;
1721;SDS011;858;53.190;8.596;2023-07-20T11:50:58;3.83;;;1.80;;
1721;SDS011;858;53.190;8.596;2023-07-20T11:53:24;2.37;;;1.33;;
1721;SDS011;858;53.190;8.596;2023-07-20T11:55:51;3.90;;;1.83;;
1721;SDS011;858;53.190;8.596;2023-07-20T11:58:18;4.40;;;1.97;;
1721;SDS011;858;53.190;8.596;2023-07-20T12:00:47;1.90;;;1.37;;
1721;SDS011;858;53.190;8.596;2023-07-20T12:03:14;3.63;;;2.63;;
1721;SDS011;858;53.190;8.596;2023-07-20T12:05:41;3.73;;;1.40;;
1721;SDS011;858;53.190;8.596;2023-07-20T12:08:07;1.80;;;1.40;;
1721;SDS011;858;53.190;8.596;2023-07-20T12:10:34;2.93;;;1.57;;
1721;SDS011;858;53.190;8.596;2023-07-20T12:13:03;3.23;;;1.10;;
1721;SDS011;858;53.190;8.596;2023-07-20T12:15:30;3.20;;;1.50;;
1721;SDS011;858;53.190;8.596;2023-07-20T12:17:59;3.63;;;1.10;;
1721;SDS011;858;53.190;8.596;2023-07-20T12:20:26;4.70;;;1.30;;
1721;SDS011;858;53.190;8.596;2023-07-20T12:22:52;7.97;;;1.90;;
1721;SDS011;858;53.190;8.596;2023-07-20T12:25:19;1.97;;;1.40;;
1721;SDS011;858;53.190;8.596;2023-07-20T12:27:47;4.53;;;1.40;;
1721;SDS011;858;53.190;8.596;2023-07-20T12:30:13;1.80;;;1.23;;
1721;SDS011;858;53.190;8.596;2023-07-20T12:32:40;3.20;;;1.10;;
1721;SDS011;858;53.190;8.596;2023-07-20T12:35:08;2.77;;;1.20;;
1721;SDS011;858;53.190;8.596;2023-07-20T12:37:36;1.37;;;0.73;;
1721;SDS011;858;53.190;8.596;2023-07-20T12:40:03;2.13;;;1.10;;
1721;SDS011;858;53.190;8.596;2023-07-20T12:42:29;1.70;;;0.90;;
1721;SDS011;858;53.190;8.596;2023-07-20T12:44:56;1.90;;;1.10;;
1721;SDS011;858;53.190;8.596;2023-07-20T12:47:23;3.47;;;1.47;;
1721;SDS011;858;53.190;8.596;2023-07-20T12:49:49;3.33;;;1.57;;
1721;SDS011;858;53.190;8.596;2023-07-20T12:52:17;2.13;;;1.13;;
1721;SDS011;858;53.190;8.596;2023-07-20T12:54:44;1.40;;;1.27;;
1721;SDS011;858;53.190;8.596;2023-07-20T12:57:10;3.07;;;1.57;;
1721;SDS011;858;53.190;8.596;2023-07-20T12:59:36;5.47;;;1.27;;
1721;SDS011;858;53.190;8.596;2023-07-20T13:02:03;3.47;;;1.50;;
1721;SDS011;858;53.190;8.596;2023-07-20T13:04:29;3.70;;;1.47;;
1721;SDS011;858;53.190;8.596;2023-07-20T13:06:55;2.03;;;1.20;;
1721;SDS011;858;53.190;8.596;2023-07-20T13:09:25;4.00;;;1.30;;
1721;SDS011;858;53.190;8.596;2023-07-20T13:11:51;2.77;;;1.13;;
1721;SDS011;858;53.190;8.596;2023-07-20T13:14:18;2.40;;;1.10;;
1721;SDS011;858;53.190;8.596;2023-07-20T13:16:44;2.60;;;1.00;;
1721;SDS011;858;53.190;8.596;2023-07-20T13:19:10;2.67;;;1.37;;
1721;SDS011;858;53.190;8.596;2023-07-20T13:21:37;3.33;;;1.00;;
1721;SDS011;858;53.190;8.596;2023-07-20T13:24:05;4.13;;;1.67;;
1721;SDS011;858;53.190;8.596;2023-07-20T13:26:33;4.17;;;1.10;;
1721;SDS011;858;53.190;8.596;2023-07-20T13:28:59;2.27;;;1.10;;
1721;SDS011;858;53.190;8.596;2023-07-20T13:31:26;3.50;;;1.50;;
1721;SDS011;858;53.190;8.596;2023-07-20T13:33:52;1.23;;;1.03;;
1721;SDS011;858;53.190;8.596;2023-07-20T13:36:22;1.77;;;1.00;;
1721;SDS011;858;53.190;8.596;2023-07-20T13:38:49;3.33;;;1.40;;
1721;SDS011;858;53.190;8.596;2023-07-20T13:41:15;2.07;;;1.20;;
1721;SDS011;858;53.190;8.596;2023-07-20T13:43:43;2.97;;;1.30;;
1721;SDS011;858;53.190;8.596;2023-07-20T13:46:12;2.23;;;1.10;;
1721;SDS011;858;53.190;8.596;2023-07-20T13:48:38;2.80;;;1.70;;
1721;SDS011;858;53.190;8.596;2023-07-20T13:51:05;2.53;;;1.30;;
1721;SDS011;858;53.190;8.596;2023-07-20T13:53:31;2.13;;;1.17;;
1721;SDS011;858;53.190;8.596;2023-07-20T13:55:58;2.80;;;1.30;;
1721;SDS011;858;53.190;8.596;2023-07-20T13:58:24;2.00;;;1.00;;
1721;SDS011;858;53.190;8.596;2023-07-20T14:00:53;1.73;;;1.43;;
1721;SDS011;858;53.190;8.596;2023-07-20T14:03:20;0.80;;;0.80;;
1721;SDS011;858;53.190;8.596;2023-07-20T14:05:46;4.17;;;1.37;;
1721;SDS011;858;53.190;8.596;2023-07-20T14:08:15;3.17;;;1.30;;
1721;SDS011;858;53.190;8.596;2023-07-20T14:10:41;4.73;;;1.10;;
1721;SDS011;858;53.190;8.596;2023-07-20T14:13:07;2.47;;;1.10;;
1721;SDS011;858;53.190;8.596;2023-07-20T14:15:34;3.70;;;1.57;;
1721;SDS011;858;53.190;8.596;2023-07-20T14:18:04;2.40;;;1.10;;
1721;SDS011;858;53.190;8.596;2023-07-20T14:20:30;3.07;;;1.60;;
1721;SDS011;858;53.190;8.596;2023-07-20T14:22:57;1.63;;;1.20;;
1721;SDS011;858;53.190;8.596;2023-07-20T14:25:23;2.17;;;1.23;;
1721;SDS011;858;53.190;8.596;2023-07-20T14:27:50;3.37;;;1.10;;
1721;SDS011;858;53.190;8.596;2023-07-20T14:30:16;2.43;;;1.20;;
1721;SDS011;858;53.190;8.596;2023-07-20T14:32:43;2.83;;;1.30;;
1721;SDS011;858;53.190;8.596;2023-07-20T14:35:10;3.03;;;1.30;;
1721;SDS011;858;53.190;8.596;2023-07-20T14:37:37;1.70;;;1.10;;
1721;SDS011;858;53.190;8.596;2023-07-20T14:40:04;4.80;;;1.73;;
1721;SDS011;858;53.190;8.596;2023-07-20T14:42:32;4.40;;;1.20;;
1721;SDS011;858;53.190;8.596;2023-07-20T14:44:59;2.77;;;1.03;;
1721;SDS011;858;53.190;8.596;2023-07-20T14:47:25;3.13;;;1.20;;
1721;SDS011;858;53.190;8.596;2023-07-20T14:49:51;8.90;;;1.93;;
1721;SDS011;858;53.190;8.596;2023-07-20T14:52:20;1.83;;;0.90;;
1721;SDS011;858;53.190;8.596;2023-07-20T14:54:47;2.20;;;1.03;;
1721;SDS011;858;53.190;8.596;2023-07-20T14:57:14;4.10;;;1.40;;
1721;SDS011;858;53.190;8.596;2023-07-20T14:59:41;4.80;;;1.50;;
1721;SDS011;858;53.190;8.596;2023-07-20T15:02:09;3.30;;;1.47;;
1721;SDS011;858;53.190;8.596;2023-07-20T15:04:35;3.53;;;1.20;;
1721;SDS011;858;53.190;8.596;2023-07-20T15:07:02;8.83;;;1.50;;
1721;SDS011;858;53.190;8.596;2023-07-20T15:09:30;4.73;;;1.20;;
1721;SDS011;858;53.190;8.596;2023-07-20T15:11:56;2.90;;;1.57;;
1721;SDS011;858;53.190;8.596;2023-07-20T15:14:23;5.77;;;1.43;;
1721;SDS011;858;53.190;8.596;2023-07-20T15:16:49;2.27;;;1.30;;
1721;SDS011;858;53.190;8.596;2023-07-20T15:19:16;4.40;;;1.10;;
1721;SDS011;858;53.190;8.596;2023-07-20T15:21:42;7.80;;;1.50;;
1721;SDS011;858;53.190;8.596;2023-07-20T15:24:09;5.57;;;1.50;;
1721;SDS011;858;53.190;8.596;2023-07-20T15:26:37;4.00;;;1.53;;
1721;SDS011;858;53.190;8.596;2023-07-20T15:29:03;1.70;;;1.17;;
1721;SDS011;858;53.190;8.596;2023-07-20T15:31:30;3.97;;;1.67;;
1721;SDS011;858;53.190;8.596;2023-07-20T15:33:56;5.47;;;1.53;;
1721;SDS011;858;53.190;8.596;2023-07-20T15:36:23;4.53;;;1.30;;
1721;SDS011;858;53.190;8.596;2023-07-20T15:38:49;2.30;;;1.47;;